Time;durP1;ratioP1;P1;durP2;ratioP2;P2;SDS_P1;SDS_P2;PMS_P1;PMS_P2;Temp;Humidity;BMP_temperature;BMP_pressure;BME280_temperature;BME280_humidity;BME280_pressure;Samples;Min_cycle;Max_cycle;Signal;HPM_P1;HPM_P2
2022/12/27 00:01:11;;;;;;;29.53;21.00;;;;;;;6.44;100.00;15184.38;5072182;28;20242;-66
2022/12/27 00:03:38;;;;;;;24.57;20.17;;;;;;;6.24;100.00;19753.94;5071219;28;20188;-66
2022/12/27 00:06:07;;;;;;;24.10;20.50;;;;;;;6.16;100.00;20117.28;5071997;28;20181;-65
2022/12/27 00:08:34;;;;;;;29.47;20.10;;;;;;;6.18;100.00;23311.63;5071919;28;20595;-65
2022/12/27 00:11:06;;;;;;;29.67;20.43;;;;;;;5.84;100.00;25213.88;5071945;28;20564;-66
2022/12/27 00:13:33;;;;;;;22.27;18.53;;;;;;;5.90;100.00;23299.91;5071758;28;20189;-65
2022/12/27 00:16:04;;;;;;;22.60;19.83;;;;;;;5.97;100.00;20110.44;5071755;28;20204;-65
2022/12/27 00:18:30;;;;;;;29.03;19.27;;;;;;;5.95;100.00;16920.34;5071921;28;20636;-66
2022/12/27 00:20:58;;;;;;;22.63;18.10;;;;;;;6.13;100.00;13101.69;5071478;28;20192;-65
2022/12/27 00:23:25;;;;;;;23.50;18.23;;;;;;;6.10;100.00;10235.88;5071812;28;20188;-66
2022/12/27 00:25:52;;;;;;;24.07;18.00;;;;;;;6.18;100.00;8010.59;5071820;28;20631;-66
2022/12/27 00:28:20;;;;;;;19.57;17.47;;;;;;;6.27;100.00;5150.69;5071502;28;20243;-66
2022/12/27 00:30:53;;;;;;;21.53;17.37;;;;;;;6.57;100.00;2929.66;5071721;28;20556;-67
2022/12/27 00:33:20;;;;;;;19.90;17.83;;;;;;;6.71;100.00;2931.03;5071752;28;20639;-67
2022/12/27 00:35:47;;;;;;;25.77;20.03;;;;;;;6.88;100.00;3250.66;5071420;28;20201;-67
2022/12/27 00:38:14;;;;;;;27.77;20.37;;;;;;;7.02;100.00;3570.03;5071385;28;20200;-66
2022/12/27 00:40:41;;;;;;;28.93;20.87;;;;;;;7.16;100.00;3889.69;5071430;28;20184;-65
2022/12/27 00:43:11;;;;;;;28.37;20.23;;;;;;;7.28;100.00;5164.13;5071319;28;20189;-66
2022/12/27 00:45:39;;;;;;;22.50;18.50;;;;;;;7.41;100.00;7395.31;5071752;28;20670;-66
2022/12/27 00:48:06;;;;;;;24.80;17.93;;;;;;;7.51;100.00;9628.53;5071447;28;20224;-66
2022/12/27 00:50:33;;;;;;;21.93;18.30;;;;;;;7.58;100.00;12182.31;5071168;28;20188;-65
2022/12/27 00:53:00;;;;;;;20.97;18.07;;;;;;;7.56;100.00;14416.50;5070292;28;20181;-65
2022/12/27 00:55:27;;;;;;;23.30;18.37;;;;;;;7.55;100.00;18570.69;5071167;28;20196;-67
2022/12/27 00:57:54;;;;;;;20.80;17.13;;;;;;;7.57;100.00;23371.50;5071188;28;20195;-65
2022/12/27 01:00:21;;;;;;;21.07;16.40;;;;;;;7.46;100.00;30418.16;5071489;28;20651;-65
2022/12/27 01:02:49;;;;;;;22.93;17.20;;;;;;;7.39;100.00;35229.75;5071196;28;20192;-65
2022/12/27 01:05:16;;;;;;;20.70;16.83;;;;;;;7.25;100.00;39399.56;5071251;28;20193;-65
2022/12/27 01:07:43;;;;;;;18.97;17.00;;;;;;;7.20;100.00;41970.09;5071531;28;20536;-65
2022/12/27 01:10:10;;;;;;;23.13;17.70;;;;;;;7.16;100.00;41001.47;5071311;28;20185;-65
2022/12/27 01:12:37;;;;;;;23.03;18.17;;;;;;;7.10;100.00;42284.09;5071031;28;20185;-66
2022/12/27 01:15:05;;;;;;;24.00;17.80;;;;;;;7.05;100.00;43890.03;5074094;28;20185;-65
2022/12/27 01:17:32;;;;;;;21.13;17.37;;;;;;;6.74;100.00;44188.22;5075047;28;20199;-65
2022/12/27 01:20:00;;;;;;;24.97;17.80;;;;;;;6.83;100.00;45804.88;5075180;28;20185;-66
2022/12/27 01:22:28;;;;;;;21.30;17.80;;;;;;;6.61;100.00;45464.91;5075087;28;20189;-65
2022/12/27 01:24:54;;;;;;;27.53;18.70;;;;;;;6.59;100.00;43854.84;5075003;28;20189;-65
2022/12/27 01:27:21;;;;;;;25.20;18.43;;;;;;;6.45;100.00;43522.41;5074623;28;20239;-65
2022/12/27 01:29:48;;;;;;;20.60;17.80;;;;;;;6.23;100.00;42541.25;5074878;28;20205;-65
2022/12/27 01:32:15;;;;;;;19.13;17.33;;;;;;;6.04;100.00;38674.22;5074923;28;20587;-65
2022/12/27 01:34:42;;;;;;;21.83;18.73;;;;;;;6.09;100.00;35790.13;5074791;28;20200;-65
2022/12/27 01:37:10;;;;;;;25.70;17.90;;;;;;;6.08;100.00;33545.66;5074838;28;20279;-66
2022/12/27 01:39:37;;;;;;;21.23;17.90;;;;;;;6.05;100.00;31621.84;5074574;28;20184;-66
2022/12/27 01:44:56;;;;;;;22.40;17.97;;;;;;;5.93;100.00;27135.78;5074810;28;20184;-66
2022/12/27 01:47:46;;;;;;;20.17;16.83;;;;;;;5.76;100.00;29046.13;5074713;28;20609;-67
2022/12/27 01:50:20;;;;;;;20.83;16.97;;;;;;;5.67;100.00;29041.38;5074226;28;20564;-65
2022/12/27 01:52:52;;;;;;;19.47;15.90;;;;;;;5.65;100.00;27121.88;5074428;28;20196;-66
2022/12/27 01:55:23;;;;;;;21.00;15.70;;;;;;;5.61;100.00;27439.75;5074326;28;20187;-66
2022/12/27 01:57:53;;;;;;;16.73;15.10;;;;;;;5.62;100.00;27759.88;5074296;28;20196;-66
2022/12/27 02:00:20;;;;;;;21.60;15.73;;;;;;;5.58;100.00;28077.50;5074102;28;20189;-65
2022/12/27 02:02:48;;;;;;;18.37;16.60;;;;;;;5.47;100.00;27113.19;5074419;28;20201;-66
2022/12/27 02:05:17;;;;;;;25.13;15.10;;;;;;;5.61;100.00;26161.53;5074475;28;20531;-66
2022/12/27 02:07:56;;;;;;;18.30;15.70;;;;;;;5.58;100.00;28397.16;5074179;28;20185;-65
2022/12/27 02:10:24;;;;;;;16.63;15.00;;;;;;;5.56;100.00;28076.47;5074341;28;20567;-65
2022/12/27 02:12:52;;;;;;;16.00;14.40;;;;;;;5.58;100.00;30315.88;5073932;28;20181;-66
2022/12/27 02:15:19;;;;;;;19.00;15.17;;;;;;;5.50;100.00;31271.38;5074015;28;20192;-66
2022/12/27 02:17:46;;;;;;;18.20;14.53;;;;;;;5.50;100.00;29671.88;5073797;28;20193;-66
2022/12/27 02:20:17;;;;;;;21.37;14.80;;;;;;;5.48;100.00;30310.38;5072839;28;20651;-67
2022/12/27 02:26:32;;;;;;;17.13;14.87;;;;;;;5.29;100.00;34139.09;5064833;28;20650;-66
2022/12/27 02:29:19;;;;;;;15.40;13.80;;;;;;;5.17;100.00;36692.63;5073423;28;20200;-66
2022/12/27 02:31:53;;;;;;;19.60;15.17;;;;;;;5.30;100.00;34459.81;5073965;28;20184;-65
2022/12/27 02:34:24;;;;;;;18.20;15.33;;;;;;;5.40;100.00;29027.38;5073642;28;20191;-65
2022/12/27 02:36:56;;;;;;;16.80;13.60;;;;;;;5.32;100.00;24870.72;5074015;28;20200;-66
2022/12/27 02:39:24;;;;;;;16.17;14.57;;;;;;;5.41;100.00;28068.78;5073671;28;20570;-66
2022/12/27 02:53:12;;;;;;;18.83;14.47;;;;;;;5.43;100.00;29668.09;5037046;28;20192;-65
2022/12/27 02:59:03;;;;;;;20.40;16.23;;;;;;;5.40;100.00;28388.13;5073453;28;20184;-65
2022/12/27 03:04:42;;;;;;;18.13;15.23;;;;;;;5.61;100.00;22648.97;5073219;28;20224;-66
2022/12/27 03:07:23;;;;;;;18.40;14.23;;;;;;;5.57;100.00;26478.84;5072864;28;20192;-65
2022/12/27 03:15:57;;;;;;;17.80;15.23;;;;;;;5.57;100.00;27757.09;5073244;28;20720;-65
2022/12/27 03:19:07;;;;;;;15.63;14.23;;;;;;;5.62;100.00;23607.03;5072467;28;20184;-65
2022/12/27 03:27:17;;;;;;;16.90;14.83;;;;;;;5.51;100.00;20730.72;5072446;28;20246;-65
2022/12/27 03:35:38;;;;;;;14.90;13.63;;;;;;;5.58;100.00;25521.22;5072023;28;20197;-66
2022/12/27 03:38:06;;;;;;;15.10;13.70;;;;;;;5.25;100.00;26144.50;5072329;28;20192;-65
2022/12/27 03:43:09;;;;;;;17.23;15.03;;;;;;;5.65;100.00;23927.63;5072307;28;20181;-66
2022/12/27 03:43:27;;;;;;;16.23;14.70;;;;;;;5.73;100.00;19782.34;5072088;28;20212;-66
2022/12/27 03:48:57;;;;;;;16.63;15.13;;;;;;;6.02;100.00;12143.56;5072160;28;20249;-65
2022/12/27 03:51:30;;;;;;;18.37;15.83;;;;;;;6.18;100.00;12147.69;5072583;28;20226;-65
2022/12/27 03:54:05;;;;;;;17.33;15.60;;;;;;;6.26;100.00;13742.34;5072340;28;20189;-67
2022/12/27 03:56:32;;;;;;;15.83;14.17;;;;;;;6.29;100.00;15018.16;5072165;28;20187;-65
2022/12/27 03:59:00;;;;;;;15.93;14.47;;;;;;;6.33;100.00;17570.66;5072249;28;20184;-67
2022/12/27 04:01:27;;;;;;;21.40;15.60;;;;;;;6.24;100.00;22355.72;5072338;28;20267;-65
2022/12/27 04:03:54;;;;;;;24.57;16.57;;;;;;;6.07;100.00;30022.13;5071807;28;20189;-66
2022/12/27 04:06:21;;;;;;;27.87;20.83;;;;;;;6.04;100.00;40920.97;5071678;28;20201;-67
2022/12/27 04:36:13;;;;;;;17.67;14.60;;;;;;;4.97;100.00;27727.47;5071728;28;20200;-66
2022/12/27 04:38:40;;;;;;;23.00;15.60;;;;;;;5.09;100.00;28052.41;5071667;28;20192;-65
2022/12/27 04:55:19;;;;;;;24.27;15.33;;;;;;;4.88;100.00;26446.09;5042896;28;20686;-66
2022/12/27 04:57:47;;;;;;;20.57;15.40;;;;;;;4.79;100.00;27399.16;5079616;28;20252;-67
2022/12/27 05:03:00;;;;;;;16.67;14.57;;;;;;;4.68;100.00;25798.38;5080614;28;20263;-66
2022/12/27 05:05:28;;;;;;;28.90;14.50;;;;;;;4.40;100.00;25785.34;5083524;28;20192;-67
2022/12/27 05:16:09;;;;;;;16.13;14.70;;;;;;;4.77;100.00;27717.34;5081863;28;20187;-65
2022/12/27 05:18:36;;;;;;;26.97;18.33;;;;;;;4.84;100.00;25805.97;5080272;28;20635;-67
2022/12/27 05:21:04;;;;;;;40.10;19.30;;;;;;;4.76;100.00;24207.47;5078362;28;20181;-67
2022/12/27 05:26:20;;;;;;;42.97;18.10;;;;;;;4.70;100.00;23566.94;5078116;28;20196;-66
2022/12/27 05:28:49;;;;;;;35.83;16.73;;;;;;;4.59;100.00;24837.44;5077966;28;20344;-66
2022/12/27 05:31:16;;;;;;;32.03;16.40;;;;;;;4.45;100.00;25149.81;5077904;28;20184;-66
2022/12/27 05:33:43;;;;;;;27.37;18.83;;;;;;;4.44;100.00;25787.00;5077801;28;20188;-65
2022/12/27 05:36:11;;;;;;;34.37;21.30;;;;;;;4.34;100.00;26420.13;5077826;28;20203;-66
2022/12/27 05:38:38;;;;;;;40.17;22.37;;;;;;;4.35;100.00;27058.16;5077709;28;20200;-66
2022/12/27 05:41:06;;;;;;;38.10;22.57;;;;;;;4.33;100.00;27057.19;5077521;28;20285;-66
2022/12/27 05:43:33;;;;;;;43.73;22.67;;;;;;;4.30;100.00;26737.06;5078185;28;20181;-65
2022/12/27 05:46:07;;;;;;;42.50;21.73;;;;;;;4.20;100.00;26094.34;5077279;28;20181;-66
2022/12/27 05:48:34;;;;;;;42.07;21.10;;;;;;;4.12;100.00;26728.47;5078002;28;20639;-66
2022/12/27 05:51:04;;;;;;;43.47;21.40;;;;;;;4.02;100.00;25767.56;5077698;28;20211;-65
2022/12/27 05:53:31;;;;;;;36.57;20.80;;;;;;;4.11;100.00;24815.91;5077415;28;20177;-65
2022/12/27 05:55:59;;;;;;;40.13;22.00;;;;;;;4.09;100.00;24177.91;5077260;28;20591;-66
2022/12/27 05:58:26;;;;;;;44.10;22.13;;;;;;;4.28;100.00;23230.25;5077804;28;20185;-65
2022/12/27 06:00:53;;;;;;;38.27;22.80;;;;;;;4.11;100.00;21949.66;5074481;28;20682;-66
2022/12/27 06:03:22;;;;;;;54.20;23.50;;;;;;;4.42;100.00;21325.28;5074872;28;20189;-67
2022/12/27 06:05:49;;;;;;;52.00;23.77;;;;;;;4.54;100.00;20693.22;5074411;28;20199;-66
2022/12/27 06:08:16;;;;;;;60.03;26.40;;;;;;;4.74;100.00;20064.03;5074195;28;20185;-66
2022/12/27 06:10:42;;;;;;;41.93;24.40;;;;;;;4.96;100.00;19435.31;5074100;28;20579;-66
2022/12/27 06:13:09;;;;;;;31.90;19.97;;;;;;;5.21;100.00;21994.28;5074171;28;20185;-65
2022/12/27 06:15:36;;;;;;;41.90;23.77;;;;;;;5.42;100.00;27430.22;5074223;28;20238;-65
2022/12/27 06:18:05;;;;;;;33.00;21.77;;;;;;;5.77;100.00;34808.63;5074160;28;20623;-65
2022/12/27 06:20:33;;;;;;;33.27;19.27;;;;;;;6.16;100.00;43179.13;5073971;28;20188;-65
2022/12/27 06:23:00;;;;;;;32.33;18.73;;;;;;;6.56;100.00;62885.00;5074272;28;20678;-65
2022/12/27 06:25:27;;;;;;;23.20;16.90;;;;;;;6.93;100.00;88917.50;5074116;28;20185;-65
2022/12/27 06:27:54;;;;;;;27.67;19.20;;;;;;;7.32;100.00;107629.59;5072464;28;20224;-65
2022/12/27 06:30:21;;;;;;;24.40;17.17;;;;;;;7.68;100.00;141462.44;5073526;28;20296;-67
2022/12/27 06:32:48;;;;;;;24.43;17.80;;;;;;;7.95;100.00;148042.91;5073741;28;20196;-65
2022/12/27 06:35:15;;;;;;;27.20;16.70;;;;;;;8.51;100.00;148184.25;5073513;28;20280;-65
2022/12/27 06:37:43;;;;;;;20.73;16.93;;;;;;;8.54;100.00;148191.81;5073766;28;20254;-66
2022/12/27 06:40:11;;;;;;;16.47;14.83;;;;;;;9.00;100.00;148305.41;5073792;28;20563;-66
2022/12/27 06:42:38;;;;;;;17.97;14.43;;;;;;;9.01;100.00;148309.19;5073762;28;20185;-66
2022/12/27 06:45:08;;;;;;;18.47;15.13;;;;;;;9.01;100.00;148309.19;5073813;28;20625;-66
2022/12/27 06:47:35;;;;;;;20.03;14.63;;;;;;;9.05;100.00;148318.03;5073395;28;20208;-65
2022/12/27 06:50:02;;;;;;;19.37;16.53;;;;;;;9.48;100.00;148426.63;5073428;28;20671;-67
2022/12/27 06:52:29;;;;;;;22.37;18.80;;;;;;;9.60;100.00;148456.94;5073295;28;20295;-65
2022/12/27 06:54:57;;;;;;;23.50;20.23;;;;;;;10.23;100.00;148613.63;5073692;28;20199;-65
2022/12/27 06:57:24;;;;;;;22.47;19.20;;;;;;;10.59;100.00;148703.38;5073428;28;20640;-65
2022/12/27 06:59:51;;;;;;;26.30;18.83;;;;;;;10.80;100.00;148755.22;5073497;28;20560;-65
2022/12/27 07:02:18;;;;;;;24.73;18.30;;;;;;;10.80;100.00;148756.50;5072964;28;20189;-65
2022/12/27 07:04:45;;;;;;;27.57;19.27;;;;;;;11.14;100.00;148841.19;5071692;28;20189;-65
2022/12/27 07:07:12;;;;;;;33.60;21.03;;;;;;;11.64;100.00;148965.16;5071950;28;20185;-65
2022/12/27 07:09:39;;;;;;;39.57;21.13;;;;;;;12.48;100.00;149175.25;5073390;28;20208;-65
2022/12/27 07:12:07;;;;;;;37.43;22.20;;;;;;;12.69;100.00;149228.44;5072592;28;20184;-65
2022/12/27 07:14:34;;;;;;;40.37;21.23;;;;;;;12.91;100.00;149282.88;5072742;28;20196;-66
2022/12/27 07:17:01;;;;;;;43.90;20.57;;;;;;;12.81;100.00;149258.88;5071492;28;20185;-65
2022/12/27 07:19:28;;;;;;;36.03;21.10;;;;;;;13.59;100.00;149453.94;5072666;28;20189;-65
2022/12/27 07:21:55;;;;;;;29.13;22.27;;;;;;;13.49;100.00;149429.91;5072981;28;20521;-65
2022/12/27 07:24:22;;;;;;;43.77;25.20;;;;;;;13.23;100.00;149365.28;5071124;28;20189;-65
2022/12/27 07:26:49;;;;;;;37.07;24.10;;;;;;;12.55;100.00;149194.28;5072848;28;20233;-65
2022/12/27 07:29:17;;;;;;;38.60;24.53;;;;;;;13.04;100.00;149317.09;5072380;28;20188;-65
2022/12/27 07:31:44;;;;;;;41.73;23.70;;;;;;;13.59;100.00;149455.22;5072271;28;20212;-66
2022/12/27 07:34:11;;;;;;;30.80;23.23;;;;;;;13.63;100.00;149464.09;5072403;28;20184;-65
2022/12/27 07:36:40;;;;;;;40.63;22.30;;;;;;;14.07;100.00;149575.63;5072724;28;20250;-65
2022/12/27 07:39:08;;;;;;;35.93;22.40;;;;;;;14.02;100.00;149561.66;5072538;28;20562;-66
2022/12/27 07:41:35;;;;;;;46.77;22.80;;;;;;;14.21;100.00;149609.88;5072235;28;20177;-65
2022/12/27 07:44:02;;;;;;;38.10;22.93;;;;;;;14.66;100.00;149721.47;5072312;28;20265;-66
2022/12/27 07:46:31;;;;;;;28.53;23.07;;;;;;;14.79;100.00;149754.44;5071172;28;20250;-64
2022/12/27 07:48:59;;;;;;;32.60;22.33;;;;;;;16.03;100.00;150065.34;5072392;28;20663;-65
2022/12/27 07:51:27;;;;;;;31.37;23.13;;;;;;;16.43;100.00;150166.91;5072455;28;20216;-66
2022/12/27 07:53:55;;;;;;;26.70;23.73;;;;;;;17.30;100.00;150386.72;5072476;28;20211;-65
2022/12/27 07:56:25;;;;;;;31.97;21.87;;;;;;;17.96;100.00;150550.69;5072446;28;20603;-66
2022/12/27 07:58:52;;;;;;;24.57;19.27;;;;;;;18.46;97.45;150677.81;5072384;28;20208;-65
2022/12/27 08:01:21;;;;;;;36.80;20.57;;;;;;;19.03;93.21;150820.34;5071957;28;20184;-65
2022/12/27 08:03:49;;;;;;;30.60;20.57;;;;;;;19.70;88.75;150988.34;5072294;28;20195;-65
2022/12/27 08:06:22;;;;;;;31.93;18.20;;;;;;;19.55;87.35;150951.47;5072000;28;20180;-65
2022/12/27 08:08:51;;;;;;;29.10;16.10;;;;;;;19.08;90.07;150833.06;5072340;28;20185;-64
2022/12/27 08:11:18;;;;;;;36.83;14.33;;;;;;;18.56;95.13;150703.31;5071713;28;20200;-65
2022/12/27 08:13:45;;;;;;;36.03;14.87;;;;;;;19.23;94.42;150869.94;5071794;28;20280;-65
2022/12/27 08:16:17;;;;;;;33.67;13.70;;;;;;;20.18;83.88;151110.59;5071965;28;20223;-64
2022/12/27 08:18:43;;;;;;;34.40;11.77;;;;;;;19.59;84.58;150961.66;5072078;28;20185;-64
2022/12/27 08:21:12;;;;;;;45.17;14.97;;;;;;;19.08;93.34;150834.34;5071468;28;20192;-64
2022/12/27 08:23:39;;;;;;;27.90;18.00;;;;;;;18.91;100.00;150791.09;5071186;28;20188;-65
2022/12/27 08:26:07;;;;;;;20.17;17.73;;;;;;;18.84;100.00;150772.03;5071983;28;20188;-65
2022/12/27 08:28:34;;;;;;;28.73;18.73;;;;;;;19.63;95.95;150971.81;5071706;28;20224;-66
2022/12/27 08:31:01;;;;;;;57.83;21.93;;;;;;;20.37;90.83;151159.00;5071406;28;20654;-65
2022/12/27 08:33:29;;;;;;;33.50;17.73;;;;;;;21.18;82.88;151362.84;5071698;28;20200;-65
2022/12/27 08:35:57;;;;;;;36.13;17.35;;;;;;;21.32;78.56;151397.25;5071722;28;20288;-65
2022/12/27 08:38:25;;;;;;;40.80;13.52;;;;;;;21.60;73.53;151467.38;5071832;28;20234;-66
2022/12/27 08:40:52;;;;;;;44.55;17.55;;;;;;;21.40;77.38;151418.94;5071890;28;20203;-65
2022/12/27 08:43:19;;;;;;;42.42;18.23;;;;;;;20.84;84.40;151277.44;5071433;28;20189;-66
2022/12/27 08:45:46;;;;;;;32.08;15.70;;;;;;;21.04;81.48;151325.88;5071762;28;20596;-65
2022/12/27 08:48:13;;;;;;;25.83;16.33;;;;;;;21.50;77.87;151443.16;5071780;28;20552;-65
2022/12/27 08:50:40;;;;;;;22.55;16.85;;;;;;;22.05;74.48;151582.13;5071319;28;20217;-65
2022/12/27 08:53:07;;;;;;;22.08;15.07;;;;;;;22.31;70.63;151648.44;5071482;28;20180;-65
2022/12/27 08:55:36;;;;;;;15.70;9.13;;;;;;;21.00;72.49;151316.97;5071618;28;20207;-65
2022/12/27 08:58:04;;;;;;;17.35;8.82;;;;;;;19.89;74.91;151036.75;5071455;28;20185;-64
2022/12/27 09:00:32;;;;;;;9.18;6.70;;;;;;;18.28;83.85;150632.06;5071534;28;20185;-64
2022/12/27 09:02:59;;;;;;;13.13;7.43;;;;;;;19.35;79.51;150900.53;5071353;28;20207;-66
2022/12/27 09:05:27;;;;;;;10.18;7.15;;;;;;;20.41;70.75;151167.94;5071476;28;20567;-65
2022/12/27 09:07:55;;;;;;;20.92;9.57;;;;;;;21.74;63.41;151503.03;5071478;28;20555;-65
2022/12/27 09:10:23;;;;;;;13.75;9.75;;;;;;;21.98;62.22;151564.25;5071317;28;20212;-65
2022/12/27 09:12:51;;;;;;;14.23;11.52;;;;;;;22.09;59.37;151591.06;5071396;28;20193;-65
2022/12/27 09:15:18;;;;;;;21.00;16.23;;;;;;;22.97;56.40;151814.28;5071116;28;20193;-65
2022/12/27 09:17:45;;;;;;;28.70;21.08;;;;;;;22.73;56.61;151754.34;5070908;28;20189;-65
2022/12/27 09:20:12;;;;;;;32.08;24.05;;;;;;;24.12;53.32;152105.31;5070970;28;20181;-65
2022/12/27 09:22:39;;;;;;;32.65;25.13;;;;;;;25.44;49.19;152438.78;5071096;28;20221;-65
2022/12/27 09:25:08;;;;;;;26.77;24.00;;;;;;;26.11;46.84;152606.22;5071006;28;20215;-65
2022/12/27 09:27:36;;;;;;;22.65;20.17;;;;;;;25.85;45.35;152541.03;5071075;28;20268;-65
2022/12/27 09:30:06;;;;;;;20.08;18.17;;;;;;;26.49;44.70;152703.44;5071106;28;20185;-65
2022/12/27 09:32:33;;;;;;;24.23;18.63;;;;;;;25.62;45.29;152483.56;5071315;28;20602;-65
2022/12/27 09:35:00;;;;;;;31.65;17.98;;;;;;;25.53;46.81;152460.53;5072064;28;20191;-65
2022/12/27 09:37:27;;;;;;;18.70;16.90;;;;;;;25.10;46.96;152351.88;5075337;28;20204;-65
2022/12/27 09:39:53;;;;;;;20.73;16.05;;;;;;;25.19;46.52;152374.88;5074580;28;20223;-65
2022/12/27 09:42:30;;;;;;;16.60;15.00;;;;;;;25.48;46.08;152449.00;5075027;28;20193;-64
2022/12/27 09:45:03;;;;;;;17.10;15.50;;;;;;;25.30;46.53;152401.69;5074497;28;20181;-64
2022/12/27 09:47:41;;;;;;;29.60;16.08;;;;;;;25.70;46.22;152504.00;5074426;28;20184;-64
2022/12/27 09:50:15;;;;;;;15.15;14.18;;;;;;;26.77;44.07;152775.09;5074319;28;20193;-64
2022/12/27 09:52:47;;;;;;;16.67;14.90;;;;;;;27.01;43.64;152835.22;5074354;28;20228;-64
2022/12/27 09:55:20;;;;;;;14.93;13.68;;;;;;;26.74;43.18;152767.38;5074518;28;20623;-64
2022/12/27 09:57:50;;;;;;;29.20;13.10;;;;;;;26.88;43.88;152800.69;5075206;28;20204;-65
2022/12/27 10:00:20;;;;;;;12.75;11.48;;;;;;;26.53;43.56;152713.66;5074311;28;20195;-64
2022/12/27 10:02:48;;;;;;;13.55;12.55;;;;;;;25.59;46.11;152475.84;5074420;28;20181;-64
2022/12/27 10:05:19;;;;;;;12.50;11.20;;;;;;;25.27;46.98;152395.31;5074155;28;20185;-64
2022/12/27 10:08:00;;;;;;;13.30;11.25;;;;;;;25.85;46.00;152542.31;5074211;28;20215;-64
2022/12/27 10:10:40;;;;;;;12.00;10.82;;;;;;;26.75;44.08;152769.94;5074216;28;20264;-65
2022/12/27 10:13:21;;;;;;;11.40;10.68;;;;;;;27.37;42.58;152926.03;5074365;28;20527;-64
2022/12/27 10:15:56;;;;;;;11.20;10.38;;;;;;;27.25;43.37;152895.34;5074081;28;20185;-64
2022/12/27 10:18:37;;;;;;;9.70;8.68;;;;;;;26.98;43.27;152826.28;5074143;28;20185;-65
2022/12/27 10:21:15;;;;;;;9.20;7.82;;;;;;;25.97;44.59;152571.69;5073764;28;20185;-65
2022/12/27 10:23:48;;;;;;;7.32;6.82;;;;;;;25.53;45.18;152460.53;5074159;28;20199;-64
2022/12/27 10:26:17;;;;;;;6.60;6.30;;;;;;;24.92;46.23;152307.16;5073625;28;20202;-63
2022/12/27 10:28:46;;;;;;;6.63;6.22;;;;;;;24.48;47.85;152194.75;5073618;28;20236;-64
2022/12/27 10:31:18;;;;;;;7.28;6.88;;;;;;;23.31;51.89;151898.47;5073848;28;20595;-64
2022/12/27 10:33:48;;;;;;;7.70;6.85;;;;;;;23.22;54.20;151876.78;5073653;28;20185;-65
2022/12/27 10:36:19;;;;;;;6.68;6.13;;;;;;;22.29;56.80;151643.31;5073747;28;20208;-65
2022/12/27 10:38:46;;;;;;;7.07;6.47;;;;;;;22.55;55.98;151707.09;5073672;28;20191;-65
2022/12/27 10:41:32;;;;;;;6.93;6.63;;;;;;;23.37;53.48;151915.09;5073816;28;20192;-64
2022/12/27 10:44:02;;;;;;;7.18;6.57;;;;;;;23.91;51.83;152051.69;5073640;28;20203;-65
2022/12/27 10:46:31;;;;;;;7.18;6.88;;;;;;;24.60;49.41;152225.38;5071647;28;20557;-64
2022/12/27 10:49:01;;;;;;;7.47;6.97;;;;;;;23.71;51.94;151999.38;5073302;28;20189;-64
2022/12/27 10:51:35;;;;;;;7.95;7.18;;;;;;;24.52;51.13;152204.97;5073138;28;20204;-65
2022/12/27 10:54:03;;;;;;;8.15;7.75;;;;;;;24.94;50.51;152311.00;5073559;28;20656;-64
2022/12/27 10:56:34;;;;;;;26.15;8.43;;;;;;;25.22;49.83;152381.25;5073298;28;20185;-63
2022/12/27 10:59:12;;;;;;;9.35;8.57;;;;;;;25.23;50.19;152383.81;5073657;28;20188;-64
2022/12/27 11:01:39;;;;;;;9.43;8.40;;;;;;;25.52;49.00;152457.94;5073303;28;20555;-64
2022/12/27 11:04:13;;;;;;;9.45;8.60;;;;;;;25.66;49.52;152493.78;5073251;28;20185;-65
2022/12/27 11:06:41;;;;;;;8.32;7.72;;;;;;;25.92;48.22;152560.25;5073319;28;20551;-64
2022/12/27 11:09:27;;;;;;;10.75;7.88;;;;;;;26.71;46.11;152759.72;5073010;28;20181;-64
2022/12/27 11:12:12;;;;;;;8.40;7.43;;;;;;;26.74;45.99;152767.38;5072917;28;20205;-64
2022/12/27 11:14:39;;;;;;;7.35;6.80;;;;;;;27.12;45.45;152863.34;5072781;28;20193;-64
2022/12/27 11:17:10;;;;;;;6.75;6.45;;;;;;;27.18;45.19;152878.72;5072974;28;20227;-64
2022/12/27 11:19:45;;;;;;;6.30;5.88;;;;;;;26.54;45.61;152716.25;5072803;28;20189;-65
2022/12/27 11:22:14;;;;;;;6.70;6.05;;;;;;;26.55;45.67;152718.81;5072774;28;20712;-64
2022/12/27 11:24:45;;;;;;;9.02;7.28;;;;;;;26.55;46.47;152717.53;5072892;28;20208;-64
2022/12/27 11:27:22;;;;;;;7.82;7.43;;;;;;;26.40;46.21;152680.41;5072409;28;20236;-64
2022/12/27 11:29:50;;;;;;;7.97;7.40;;;;;;;25.82;47.17;152534.66;5072962;28;20554;-63
2022/12/27 11:32:18;;;;;;;8.10;7.25;;;;;;;25.02;49.24;152332.72;5072746;28;20752;-63
2022/12/27 11:34:48;;;;;;;7.15;6.75;;;;;;;25.20;49.50;152377.44;5072758;28;20188;-63
2022/12/27 11:37:19;;;;;;;7.85;7.35;;;;;;;24.42;52.34;152180.69;5072977;28;20686;-63
2022/12/27 11:39:48;;;;;;;7.60;7.07;;;;;;;23.21;57.69;151874.28;5072675;28;20678;-64
2022/12/27 11:42:26;;;;;;;7.95;7.38;;;;;;;21.64;67.22;151477.56;5072340;28;20682;-64
2022/12/27 11:45:03;;;;;;;8.68;8.00;;;;;;;20.50;77.40;151190.81;5072359;28;20192;-64
2022/12/27 11:47:37;;;;;;;9.98;9.40;;;;;;;20.15;83.29;151101.69;5072592;28;20187;-64
2022/12/27 11:50:22;;;;;;;12.30;11.50;;;;;;;19.69;90.95;150987.06;5072267;28;20197;-64
2022/12/27 11:53:08;;;;;;;13.43;12.43;;;;;;;19.27;96.20;150881.41;5072624;28;20205;-63
2022/12/27 11:56:03;;;;;;;14.87;13.53;;;;;;;18.96;100.00;150803.81;5072312;28;20181;-64
2022/12/27 11:59:11;;;;;;;15.17;13.63;;;;;;;18.74;100.00;150746.56;5070651;28;20197;-64
2022/12/27 12:02:02;;;;;;;14.73;13.40;;;;;;;18.53;100.00;150695.72;5073010;28;20208;-64
2022/12/27 12:05:07;;;;;;;14.47;13.10;;;;;;;18.52;100.00;150693.16;5073176;28;20563;-64
2022/12/27 12:07:49;;;;;;;14.20;12.80;;;;;;;18.40;100.00;150662.59;5064600;28;20204;-64
2022/12/27 12:10:30;;;;;;;17.20;11.60;;;;;;;18.54;100.00;150696.97;5073622;28;20502;-64
2022/12/27 12:13:27;;;;;;;13.37;12.27;;;;;;;18.58;100.00;150708.44;5075390;28;20251;-64
2022/12/27 12:16:23;;;;;;;18.97;11.67;;;;;;;18.61;100.00;150714.78;5077362;28;20208;-63
2022/12/27 12:19:06;;;;;;;17.73;12.47;;;;;;;18.68;100.00;150732.56;5077491;28;20185;-65
2022/12/27 12:21:37;;;;;;;9.00;8.30;;;;;;;18.56;100.00;150703.31;5077080;28;20185;-65
2022/12/27 12:24:41;;;;;;;5.10;4.70;;;;;;;18.63;100.00;150719.84;5075469;28;20184;-63
2022/12/27 12:27:22;;;;;;;5.13;3.80;;;;;;;18.64;100.00;150722.38;5065635;28;20235;-65
2022/12/27 12:30:12;;;;;;;14.13;4.70;;;;;;;18.56;100.00;150703.31;5073713;28;20193;-63
2022/12/27 12:32:56;;;;;;;6.27;3.83;;;;;;;18.73;100.00;150744.00;5073040;28;20200;-63
2022/12/27 12:35:48;;;;;;;8.43;3.50;;;;;;;18.74;100.00;150746.56;5072372;28;20192;-64
2022/12/27 12:38:22;;;;;;;10.33;3.60;;;;;;;18.78;100.00;150756.75;5072078;28;20193;-64
2022/12/27 12:41:06;;;;;;;9.77;3.77;;;;;;;18.59;100.00;150710.94;5071907;28;20181;-64
2022/12/27 12:43:48;;;;;;;31.47;4.50;;;;;;;18.46;100.00;150676.59;5071695;28;20211;-64
2022/12/27 12:46:30;;;;;;;22.83;3.37;;;;;;;18.31;100.00;150638.41;5071471;28;20187;-63
2022/12/27 12:49:33;;;;;;;7.10;3.13;;;;;;;18.06;100.00;150576.13;5071606;28;20266;-62
2022/12/27 12:52:15;;;;;;;2.90;2.57;;;;;;;17.77;100.00;150504.97;5071825;28;20670;-63
2022/12/27 12:54:59;;;;;;;6.10;2.60;;;;;;;17.85;100.00;150522.72;5071714;28;20536;-63
2022/12/27 12:57:43;;;;;;;9.67;3.53;;;;;;;17.70;100.00;150485.84;5070388;28;20185;-63
2022/12/27 13:00:27;;;;;;;4.97;3.00;;;;;;;17.68;100.00;150482.06;5071759;28;20573;-64
2022/12/27 13:03:35;;;;;;;5.53;3.03;;;;;;;17.52;100.00;150440.09;5069833;28;20232;-63
2022/12/27 13:06:15;;;;;;;6.73;3.20;;;;;;;17.60;100.00;150461.75;5063692;28;20230;-64
2022/12/27 13:08:47;;;;;;;3.27;3.07;;;;;;;17.50;100.00;150436.25;5070988;28;20192;-64
2022/12/27 13:11:29;;;;;;;6.83;3.47;;;;;;;17.53;100.00;150443.88;5074632;28;20623;-64
2022/12/27 13:14:20;;;;;;;2.90;2.80;;;;;;;17.55;100.00;150448.97;5075474;28;20533;-63